Pagrindinis puslapis
METAR-TAF:

METAR-TAF

Oro uostai :

Linatės oro uostas

Milanas, Italija

platuma: 45-26N, ilguma: 009-17E, Aukštis: 107 m

Dabartinis oras

Ataskaita buvo paskelbta 34 minutes, ne 20:50 UTC
Vėjas 4 kt iš Rytų/Šiaurės Rytų, svyruoja nuo Šiaurės Rytų ir Rytų
Temperatūra 8°C
Drėgmė 76%
Slėgis 1015 hPa
Matomumas: 8000 m
Mažai debesys ne aukštis 2500 ft
Su prošvaistėmis ne aukštis 4500 ft

METAR: LIML 272050Z 06004KT 040V100 8000 FEW025 BKN045 08/04 Q1015 NOSIG

Laikas: 22:24 (21:24 UTC)

Prognozė

Ataskaita buvo paskelbta 4 valandos ir 24 minutes, ne 17:00 UTC
Prognozė galioja nuo 27 metu 18 UTC su 28 metu 18 UTC
Vėjas 5 kt nuo kintamojo kryptimis
Matomumas: 5000 m
Išsisklaidę debesys ne aukštis 1500 ft
Su prošvaistėmis ne aukštis 4000 ft
rūkana
Laikinai
nuo 27 metu 21 UTC su 28 metu 03 UTC
lietus
Laikinai
nuo 28 metu 03 UTC su 28 metu 08 UTC
Matomumas: 0900 m
Su prošvaistėmis ne aukštis 1000 ft
rūkas

TAF: LIML 271700Z 2718/2818 VRB05KT 5000 BR SCT015 BKN040 TEMPO 2721/2803 RA TEMPO 2803/2808 0900 FG BKN010

Orai ataskaitas ir orų prognozės (METAR, TAF).

turimą stotys yra geltonos ir raudonos taškus žemėlapyje.

Perkelti pele per norėdami pamatyti stoties vardą.

Tada spustelėkite, norėdami matyti oro stebėjimo ir prognozės.

Norėdami pakeisti žemėlapį: spustelėkite ant žalios mygtukų su juodo kryžiaus žemyn,; žalią mygtuką su brūkšneliu, jei norite nutolinti; arba žalių rodyklių gretimoms žemėlapius.


METAR-TAF: